Time;durP1;ratioP1;P1;durP2;ratioP2;P2;SDS_P1;SDS_P2;PMS_P1;PMS_P2;Temp;Humidity;BMP_temperature;BMP_pressure;BME280_temperature;BME280_humidity;BME280_pressure;Samples;Min_cycle;Max_cycle;Signal;HPM_P1;HPM_P2
2022/02/09 00:03:52;;;;;;;38.90;19.05;;;;;;;6.31;43.96;102779.06;5014121;28;20050;-62
2022/02/09 00:09:04;;;;;;;33.53;17.07;;;;;;;6.24;44.20;102783.47;5014298;28;20050;-61
2022/02/09 00:11:40;;;;;;;39.53;19.73;;;;;;;6.25;44.22;102784.31;4999599;28;20060;-61
2022/02/09 00:14:18;;;;;;;38.03;19.20;;;;;;;6.25;44.06;102780.00;4994561;28;20479;-61
2022/02/09 00:19:28;;;;;;;37.80;18.25;;;;;;;6.28;44.37;102779.97;4994585;28;20053;-61
2022/02/09 01:51:16;;;;;;;31.98;16.02;;;;;;;5.52;48.00;102805.41;5012619;28;20503;-61
2022/02/09 01:56:32;;;;;;;27.55;16.08;;;;;;;5.47;47.68;102814.97;5012169;28;20056;-61
2022/02/09 01:58:59;;;;;;;30.67;15.32;;;;;;;5.44;47.58;102810.66;5012482;28;20080;-61
2022/02/09 02:01:26;;;;;;;28.50;15.93;;;;;;;5.46;47.91;102797.63;5012403;28;20502;-61
2022/02/09 02:03:53;;;;;;;25.65;15.40;;;;;;;5.40;47.90;102801.97;5012367;28;20502;-61
2022/02/09 02:06:20;;;;;;;25.13;15.60;;;;;;;5.37;47.83;102811.50;5011364;28;20045;-61
2022/02/09 02:08:50;;;;;;;29.25;15.95;;;;;;;5.36;47.79;102805.44;5012556;28;20042;-61
2022/02/09 02:11:32;;;;;;;28.02;15.30;;;;;;;5.34;47.84;102804.56;5012304;28;20057;-62
2022/02/09 02:16:48;;;;;;;24.52;13.95;;;;;;;5.29;47.65;102790.69;5011139;28;20054;-61
2022/02/09 02:21:59;;;;;;;24.35;14.38;;;;;;;5.30;47.71;102788.97;5012164;28;20042;-61
2022/02/09 02:36:04;;;;;;;25.67;14.60;;;;;;;5.26;47.92;102784.63;5012212;28;20050;-62
2022/02/09 03:14:05;;;;;;;24.02;14.13;;;;;;;4.88;48.18;102768.19;4999432;28;20053;-62
2022/02/09 03:16:38;;;;;;;23.30;14.02;;;;;;;4.89;48.18;102765.59;5014981;28;20050;-63
2022/02/09 03:24:32;;;;;;;20.50;13.05;;;;;;;4.94;48.31;102768.19;5015079;28;20046;-61
2022/02/09 03:27:26;;;;;;;23.88;13.40;;;;;;;4.95;48.23;102769.94;5014847;28;20494;-64
2022/02/09 03:59:13;;;;;;;19.42;12.13;;;;;;;4.73;48.71;102782.91;4994566;28;20050;-61
2022/02/09 04:01:41;;;;;;;20.02;12.45;;;;;;;4.68;48.60;102789.84;4994492;28;20050;-61
2022/02/09 04:04:08;;;;;;;25.08;12.57;;;;;;;4.69;48.70;102788.13;5004986;28;20050;-61
2022/02/09 04:06:37;;;;;;;20.42;12.35;;;;;;;4.65;48.44;102786.41;5010901;28;20057;-61
2022/02/09 04:09:09;;;;;;;21.08;12.20;;;;;;;4.63;48.46;102782.91;5010895;28;20041;-63
2022/02/09 04:14:13;;;;;;;24.85;12.10;;;;;;;4.60;48.80;102781.19;5010972;28;20093;-61
2022/02/09 04:19:37;;;;;;;19.10;11.53;;;;;;;4.58;48.75;102788.09;5010560;28;20053;-60
2022/02/09 04:41:50;;;;;;;24.42;13.70;;;;;;;4.38;49.03;102794.13;5010326;28;20052;-61
2022/02/09 04:54:46;;;;;;;22.98;12.18;;;;;;;4.34;48.86;102794.13;5008902;28;20046;-61
2022/02/09 04:57:26;;;;;;;21.77;12.23;;;;;;;4.28;48.76;102800.19;5009924;28;20058;-61
2022/02/09 05:00:21;;;;;;;22.73;12.32;;;;;;;4.23;49.06;102809.69;5009823;28;20447;-62
2022/02/09 05:21:11;;;;;;;24.00;12.45;;;;;;;4.08;49.26;102820.88;5009424;28;20050;-61
2022/02/09 05:22:32;;;;;;;24.70;11.77;;;;;;;4.06;49.29;102823.47;5008366;28;20050;-61
2022/02/09 05:25:26;;;;;;;25.05;12.93;;;;;;;4.10;49.22;102819.16;5009685;28;20050;-61
2022/02/09 05:27:55;;;;;;;;;;;;;;;4.12;49.33;102817.44;5008713;28;20105;-60
2022/02/09 05:30:22;;;;;;;19.98;12.32;;;;;;;4.17;49.45;102822.66;5009235;28;19922;-61
2022/02/09 05:32:49;;;;;;;22.33;12.50;;;;;;;4.16;49.41;102831.31;5009742;28;20053;-61
2022/02/09 05:35:18;;;;;;;23.00;12.77;;;;;;;4.11;49.38;102825.22;5009342;28;20080;-61
2022/02/09 05:37:45;;;;;;;23.02;12.57;;;;;;;4.06;49.48;102820.88;5009318;28;20046;-61
2022/02/09 05:40:12;;;;;;;22.80;12.00;;;;;;;4.02;49.48;102832.09;5009300;28;20112;-61
2022/02/09 05:42:39;;;;;;;22.42;11.82;;;;;;;3.97;49.53;102836.41;5008204;28;20065;-61
2022/02/09 05:45:09;;;;;;;25.08;11.98;;;;;;;3.89;49.75;102843.31;5009282;28;20096;-61
2022/02/09 05:58:12;;;;;;;22.38;11.40;;;;;;;3.85;49.45;102855.41;5009379;28;20057;-62
2022/02/09 06:00:41;;;;;;;18.67;11.10;;;;;;;3.84;49.31;102848.47;5007719;28;20046;-60
2022/02/09 06:03:08;;;;;;;24.77;11.93;;;;;;;3.82;49.34;102862.31;5009125;28;20549;-62
2022/02/09 06:05:35;;;;;;;24.98;11.75;;;;;;;3.85;49.05;102858.00;5008947;28;20452;-61
2022/02/09 06:08:01;;;;;;;24.92;11.05;;;;;;;3.83;49.20;102857.13;5008320;28;20061;-60
2022/02/09 06:10:35;;;;;;;21.90;11.32;;;;;;;3.82;49.31;102865.78;4992787;28;20053;-60
2022/02/09 06:13:18;;;;;;;23.83;12.23;;;;;;;3.85;49.42;102858.00;5008926;28;20053;-60
2022/02/09 06:21:26;;;;;;;25.30;11.57;;;;;;;3.83;49.75;102867.50;5008979;28;20050;-60
2022/02/09 06:23:53;;;;;;;26.25;11.85;;;;;;;3.81;49.62;102873.56;5008847;28;20522;-59
2022/02/09 06:26:19;;;;;;;28.38;12.25;;;;;;;3.79;49.79;102873.53;5008473;28;20050;-60
2022/02/09 06:28:47;;;;;;;23.23;11.45;;;;;;;3.75;49.88;102871.81;5008828;28;20100;-61
2022/02/09 06:31:14;;;;;;;23.65;11.00;;;;;;;3.75;49.64;102877.84;5008836;28;20054;-60
2022/02/09 06:33:41;;;;;;;23.77;12.88;;;;;;;3.74;49.74;102873.50;5009398;28;20046;-60
2022/02/09 06:36:10;;;;;;;24.20;11.55;;;;;;;3.80;49.75;102874.44;5012196;28;20060;-60
2022/02/09 06:38:40;;;;;;;18.48;12.60;;;;;;;3.82;49.67;102878.78;5002466;28;20473;-61
2022/02/09 06:41:08;;;;;;;22.38;11.43;;;;;;;3.82;49.77;102872.69;5003174;28;20103;-60
2022/02/09 06:43:35;;;;;;;23.02;11.85;;;;;;;3.84;49.81;102877.03;4992864;28;20073;-60
2022/02/09 06:46:02;;;;;;;18.15;10.95;;;;;;;3.86;49.72;102877.94;4992879;28;20582;-60
2022/02/09 06:48:30;;;;;;;26.55;11.40;;;;;;;3.89;49.86;102877.94;4992555;28;20042;-59
2022/02/09 06:51:06;;;;;;;20.67;11.05;;;;;;;3.92;49.98;102882.28;4992570;28;20047;-60
2022/02/09 06:53:46;;;;;;;22.88;12.77;;;;;;;3.96;49.93;102878.84;4992763;28;20491;-61
2022/02/09 06:56:23;;;;;;;21.20;13.85;;;;;;;4.03;50.00;102883.22;4992447;28;20050;-61
2022/02/09 06:59:12;;;;;;;21.38;12.65;;;;;;;4.04;50.02;102879.75;5009988;28;20045;-60
2022/02/09 07:01:38;;;;;;;19.77;11.95;;;;;;;4.13;49.95;102876.34;5011981;28;20060;-60
2022/02/09 07:04:05;;;;;;;19.98;12.68;;;;;;;4.18;50.00;102874.63;5010499;28;20045;-62
2022/02/09 07:06:32;;;;;;;22.35;12.90;;;;;;;4.21;50.07;102882.41;5011358;28;20453;-60
2022/02/09 07:08:59;;;;;;;24.52;12.75;;;;;;;4.31;50.11;102877.28;5012306;28;20153;-60
2022/02/09 07:11:25;;;;;;;20.38;11.70;;;;;;;4.27;50.18;102875.50;5005835;28;20430;-60
2022/02/09 07:13:52;;;;;;;26.00;12.68;;;;;;;4.29;50.21;102881.59;5000868;28;20096;-60
2022/02/09 07:16:20;;;;;;;24.92;12.55;;;;;;;4.31;50.31;102882.50;5001152;28;20564;-60
2022/02/09 07:18:48;;;;;;;22.75;12.50;;;;;;;4.39;50.08;102883.38;5002612;28;20056;-60
2022/02/09 07:21:20;;;;;;;28.85;14.20;;;;;;;4.53;50.25;102886.91;5001351;28;20058;-60
2022/02/09 07:23:52;;;;;;;23.30;12.57;;;;;;;4.70;49.84;102883.50;5000725;28;20101;-60
2022/02/09 07:28:47;;;;;;;25.33;12.05;;;;;;;4.96;49.65;102893.06;5002223;28;20064;-60
2022/02/09 07:31:14;;;;;;;26.38;12.18;;;;;;;5.12;49.29;102896.56;5011381;28;20556;-60
2022/02/09 07:33:43;;;;;;;21.35;12.00;;;;;;;5.28;49.07;102887.91;5002481;28;20037;-61
2022/02/09 07:36:10;;;;;;;24.30;13.05;;;;;;;5.49;48.75;102894.81;4998570;28;20058;-60
2022/02/09 07:38:37;;;;;;;21.92;12.25;;;;;;;5.65;48.56;102887.00;4994063;28;20041;-61
2022/02/09 07:41:04;;;;;;;24.70;13.38;;;;;;;5.86;48.13;102889.56;5010441;28;20891;-60
2022/02/09 07:43:45;;;;;;;23.60;12.73;;;;;;;6.03;47.87;102883.47;5010787;28;20080;-60
2022/02/09 07:46:26;;;;;;;24.23;12.25;;;;;;;6.20;47.60;102884.28;5009844;28;20509;-60
2022/02/09 07:56:18;;;;;;;22.23;14.23;;;;;;;6.86;46.11;102895.28;5009443;28;20494;-60
2022/02/09 07:58:45;;;;;;;22.70;14.07;;;;;;;7.01;45.55;102891.72;5004386;28;20082;-60
2022/02/09 08:01:11;;;;;;;23.52;14.63;;;;;;;7.13;45.41;102891.59;4999934;28;20050;-61
2022/02/09 08:03:39;;;;;;;23.42;15.25;;;;;;;7.32;44.83;102894.09;5001012;28;20042;-60
2022/02/09 08:06:06;;;;;;;24.17;15.23;;;;;;;7.55;44.21;102883.41;5000195;28;20047;-60
2022/02/09 08:08:35;;;;;;;22.02;14.98;;;;;;;7.72;43.58;102888.50;5000716;28;20061;-60
2022/02/09 08:11:14;;;;;;;24.70;15.85;;;;;;;7.85;43.37;102889.25;4996264;28;20057;-60
2022/02/09 08:34:54;;;;;;;29.27;16.38;;;;;;;9.16;40.96;102878.81;5003989;28;20057;-60
2022/02/09 08:37:21;;;;;;;22.27;15.27;;;;;;;9.35;40.81;102874.13;4992857;28;20716;-60
2022/02/09 08:39:49;;;;;;;25.70;16.13;;;;;;;9.53;40.68;102872.94;5007136;28;20454;-60
2022/02/09 08:42:17;;;;;;;24.23;15.60;;;;;;;9.68;40.28;102877.03;4995393;28;20046;-60
2022/02/09 08:44:44;;;;;;;24.98;15.65;;;;;;;9.80;40.06;102874.19;5009856;28;20053;-60
2022/02/09 08:47:12;;;;;;;23.80;15.77;;;;;;;9.96;39.86;102861.63;5009207;28;20533;-60
2022/02/09 08:49:38;;;;;;;24.52;16.52;;;;;;;10.12;39.74;102864.81;5009878;28;20120;-60
2022/02/09 08:52:06;;;;;;;26.13;15.20;;;;;;;10.25;39.59;102872.44;5009568;28;20450;-60
2022/02/09 08:54:33;;;;;;;10.52;6.30;;;;;;;10.60;39.78;102865.59;5008954;28;20053;-60
2022/02/09 08:57:10;;;;;;;10.18;6.28;;;;;;;11.42;41.19;102861.00;5009119;28;20123;-60
2022/02/09 08:59:39;;;;;;;24.27;16.05;;;;;;;11.67;41.99;102866.47;4995446;28;20046;-62
2022/02/09 09:02:10;;;;;;;26.33;16.10;;;;;;;11.56;41.60;102874.63;4992501;28;20124;-63
2022/02/09 09:05:09;;;;;;;25.63;15.93;;;;;;;11.51;41.25;102865.16;4998776;28;20773;-61
2022/02/09 09:07:30;;;;;;;22.70;15.38;;;;;;;11.57;40.65;102870.25;4999689;28;20699;-61
2022/02/09 09:10:07;;;;;;;26.70;17.27;;;;;;;11.66;40.24;102871.78;4997799;28;20533;-61
2022/02/09 10:02:38;;;;;;;18.37;14.07;;;;;;;14.56;32.70;102840.25;5008956;28;20491;-61
2022/02/09 10:31:03;;;;;;;18.23;13.23;;;;;;;15.31;31.76;102828.38;5003456;28;20048;-61
2022/02/09 10:33:50;;;;;;;16.75;11.00;;;;;;;15.85;31.55;102797.84;5011639;28;20188;-61
2022/02/09 10:36:19;;;;;;;11.85;8.55;;;;;;;15.92;31.03;102791.31;5011636;28;20484;-60
2022/02/09 10:38:49;;;;;;;15.73;9.95;;;;;;;16.06;30.62;102788.03;5011158;28;20049;-61
2022/02/09 10:41:26;;;;;;;14.43;8.57;;;;;;;15.96;30.89;102792.88;5011623;28;20157;-62
2022/02/09 10:44:19;;;;;;;12.30;9.35;;;;;;;16.16;30.40;102784.88;5005840;28;20042;-60
2022/02/09 10:46:48;;;;;;;11.43;8.68;;;;;;;16.26;30.39;102777.31;5002187;28;20556;-60
2022/02/09 10:49:19;;;;;;;12.90;8.73;;;;;;;16.20;30.43;102782.94;5001615;28;20086;-60
2022/02/09 10:51:51;;;;;;;12.55;9.25;;;;;;;16.33;30.08;102764.66;5002217;28;20117;-60
2022/02/09 10:54:29;;;;;;;12.45;8.75;;;;;;;16.42;29.94;102763.34;4999993;28;20049;-60
2022/02/09 10:56:58;;;;;;;14.63;10.27;;;;;;;16.35;30.18;102752.19;5004630;28;20060;-60
2022/02/09 10:59:27;;;;;;;12.82;9.48;;;;;;;16.46;29.74;102755.16;5000878;28;20630;-60
2022/02/09 11:01:56;;;;;;;12.63;9.35;;;;;;;16.56;29.87;102752.06;5000451;28;20159;-60
2022/02/09 11:04:22;;;;;;;11.30;8.40;;;;;;;16.58;29.13;102753.72;5001682;28;20490;-61
2022/02/09 11:06:50;;;;;;;13.98;9.43;;;;;;;16.62;29.19;102739.38;5007392;28;20045;-62
2022/02/09 11:09:27;;;;;;;15.85;9.55;;;;;;;16.75;29.25;102742.25;4999889;28;20459;-61
2022/02/09 11:11:55;;;;;;;14.27;9.10;;;;;;;16.63;29.18;102737.56;5001479;28;20108;-60
2022/02/09 11:14:24;;;;;;;13.18;8.35;;;;;;;16.48;29.32;102741.81;5001127;28;20054;-60
2022/02/09 11:17:04;;;;;;;11.18;9.10;;;;;;;16.57;29.51;102741.38;5000178;28;20054;-61
2022/02/09 11:19:40;;;;;;;13.20;9.32;;;;;;;16.60;29.43;102724.47;4994888;28;20085;-62
2022/02/09 11:22:11;;;;;;;13.18;9.32;;;;;;;16.65;28.91;102730.41;5000790;28;20042;-61
2022/02/09 11:24:44;;;;;;;14.43;10.07;;;;;;;16.72;29.13;102729.16;4998595;28;20073;-61
2022/02/09 11:27:23;;;;;;;23.33;17.50;;;;;;;16.85;29.12;102724.06;4999073;28;20069;-61
2022/02/09 11:30:13;;;;;;;16.35;11.15;;;;;;;16.93;28.95;102721.06;4999643;28;20403;-61
2022/02/09 11:33:22;;;;;;;13.95;9.77;;;;;;;17.01;28.68;102707.41;5001602;28;20042;-62
2022/02/09 11:38:52;;;;;;;15.15;12.68;;;;;;;17.03;28.15;102706.38;4992645;28;20054;-61
2022/02/09 11:41:23;;;;;;;21.95;15.43;;;;;;;17.15;27.82;102702.22;4989490;28;20043;-62
2022/02/09 11:46:53;;;;;;;37.05;23.90;;;;;;;17.20;27.55;102694.00;5010746;28;20447;-61
2022/02/09 11:50:21;;;;;;;18.70;13.15;;;;;;;17.29;27.59;102691.72;5010565;28;20252;-61
2022/02/09 12:10:07;;;;;;;17.67;11.85;;;;;;;17.84;28.16;102656.88;4982738;28;20081;-60
2022/02/09 12:12:42;;;;;;;18.52;12.40;;;;;;;17.94;27.84;102658.97;5009380;28;20104;-61
2022/02/09 12:15:32;;;;;;;19.45;12.25;;;;;;;18.06;27.94;102664.50;5004012;28;20052;-61
2022/02/09 12:18:14;;;;;;;17.65;12.38;;;;;;;18.00;27.84;102654.25;4994171;28;20453;-61
2022/02/09 12:20:48;;;;;;;22.10;15.90;;;;;;;18.06;27.60;102651.22;5010237;28;20502;-61
2022/02/09 12:23:38;;;;;;;32.28;20.50;;;;;;;18.21;27.68;102645.00;5012121;28;20048;-61
2022/02/09 12:26:12;;;;;;;18.70;13.27;;;;;;;18.28;27.48;102635.75;5029068;28;20056;-61
2022/02/09 12:28:41;;;;;;;20.10;13.73;;;;;;;18.28;27.79;102640.19;5012679;28;20096;-61
2022/02/09 12:31:09;;;;;;;24.27;16.63;;;;;;;18.38;27.14;102632.53;5009501;28;20514;-60
2022/02/09 12:33:42;;;;;;;17.88;12.88;;;;;;;18.48;27.03;102631.03;5009971;28;20104;-61
2022/02/09 12:36:12;;;;;;;17.90;14.25;;;;;;;18.54;27.24;102616.53;5009688;28;20064;-60
2022/02/09 12:38:41;;;;;;;15.13;12.30;;;;;;;18.57;27.39;102614.50;5008625;28;20413;-60
2022/02/09 12:41:18;;;;;;;17.92;12.10;;;;;;;18.62;26.98;102608.09;5010406;28;20060;-61
2022/02/09 12:44:09;;;;;;;17.50;12.43;;;;;;;18.66;27.31;102604.28;5009290;28;20430;-60
2022/02/09 12:46:38;;;;;;;17.90;11.93;;;;;;;18.70;27.06;102601.34;5010197;28;20152;-60
2022/02/09 12:49:09;;;;;;;17.95;12.68;;;;;;;18.75;26.96;102604.56;5009160;28;20430;-60
2022/02/09 12:51:38;;;;;;;17.05;12.27;;;;;;;18.81;27.18;102597.16;5009978;28;20490;-60
2022/02/09 12:54:07;;;;;;;15.88;11.73;;;;;;;18.90;26.91;102594.78;5009603;28;20132;-62
2022/02/09 12:56:37;;;;;;;15.23;12.52;;;;;;;18.99;27.25;102592.53;5009552;28;20057;-61
2022/02/09 12:59:09;;;;;;;21.13;12.60;;;;;;;19.03;27.64;102586.06;5008657;28;20076;-60
2022/02/09 13:01:51;;;;;;;17.13;12.05;;;;;;;19.06;27.65;102584.06;5008439;28;20067;-60
2022/02/09 13:04:33;;;;;;;18.55;13.60;;;;;;;19.22;27.74;102575.97;5009541;28;20054;-60
2022/02/09 13:07:03;;;;;;;19.10;14.10;;;;;;;19.25;27.59;102562.44;5009380;28;20092;-60
2022/02/09 13:09:30;;;;;;;20.98;13.70;;;;;;;19.33;27.68;102564.59;5008627;28;20069;-60
2022/02/09 13:11:57;;;;;;;35.28;24.13;;;;;;;19.37;27.66;102563.44;5007895;28;20049;-60
2022/02/09 13:14:32;;;;;;;18.75;13.55;;;;;;;19.40;27.43;102562.38;4999698;28;20092;-61
2022/02/09 13:51:56;;;;;;;43.25;27.15;;;;;;;19.77;28.02;102543.13;4961098;28;20441;-62
2022/02/09 14:35:18;;;;;;;21.40;12.90;;;;;;;19.63;30.01;102491.66;4996863;28;20050;-62
2022/02/09 14:56:59;;;;;;;17.77;13.07;;;;;;;19.45;31.08;102495.53;5002146;28;20038;-62
2022/02/09 15:02:06;;;;;;;22.92;12.30;;;;;;;19.32;31.43;102491.00;5000191;28;20050;-61
2022/02/09 15:10:19;;;;;;;;;;;;;;;19.34;33.46;102486.44;5010544;28;20050;-61
2022/02/09 15:13:06;;;;;;;18.70;8.63;;;;;;;19.32;33.96;102488.34;5009492;28;19961;-62
2022/02/09 15:18:47;;;;;;;15.25;9.27;;;;;;;19.32;34.87;102488.34;5009477;28;20100;-62
2022/02/09 15:21:21;;;;;;;17.90;9.23;;;;;;;19.28;35.13;102497.50;5009438;28;20046;-61
2022/02/09 15:23:50;;;;;;;18.17;11.98;;;;;;;19.12;35.38;102489.66;5009718;28;20050;-62
2022/02/09 15:26:20;;;;;;;17.25;11.73;;;;;;;18.87;35.09;102491.22;5010504;28;20120;-63
2022/02/09 15:28:49;;;;;;;17.02;11.73;;;;;;;18.72;35.00;102494.88;5009608;28;20510;-65
2022/02/09 15:31:22;;;;;;;23.00;12.15;;;;;;;18.59;34.89;102489.47;5008906;28;20058;-66
2022/02/09 15:34:01;;;;;;;29.38;17.35;;;;;;;18.46;35.09;102484.03;5010347;28;20100;-64
2022/02/09 15:36:48;;;;;;;19.20;10.85;;;;;;;18.34;35.14;102488.34;5010155;28;20049;-63
2022/02/09 15:39:18;;;;;;;19.17;10.95;;;;;;;18.21;35.54;102490.91;5009296;28;20046;-62
2022/02/09 16:09:30;;;;;;;17.42;9.15;;;;;;;16.21;39.98;102497.72;4990130;28;20142;-61
2022/02/09 16:18:11;;;;;;;16.30;8.77;;;;;;;15.49;42.04;102503.91;4990579;28;20105;-61
2022/02/09 16:23:02;;;;;;;17.92;9.35;;;;;;;15.09;43.20;102507.63;5008440;28;20109;-60
2022/02/09 16:25:48;;;;;;;13.65;10.10;;;;;;;14.94;43.75;102507.41;5010732;28;20398;-61
2022/02/09 16:44:41;;;;;;;18.65;10.55;;;;;;;14.11;46.31;102537.53;5009142;28;20112;-60
2022/02/09 16:47:35;;;;;;;19.67;10.30;;;;;;;14.01;46.40;102531.78;5010015;28;20133;-61
2022/02/09 16:50:14;;;;;;;22.30;10.90;;;;;;;13.92;46.79;102533.03;4992326;28;20054;-61
2022/02/09 16:52:58;;;;;;;21.30;10.50;;;;;;;13.86;46.79;102530.63;4990364;28;20046;-61
2022/02/09 17:19:46;;;;;;;32.40;15.17;;;;;;;13.08;48.30;102559.19;5009396;28;20049;-63
2022/02/09 17:22:13;;;;;;;31.10;17.05;;;;;;;12.97;48.83;102561.38;5009371;28;20303;-61
2022/02/09 17:24:39;;;;;;;32.15;16.80;;;;;;;12.89;48.87;102567.78;5009440;28;20073;-61
2022/02/09 17:27:10;;;;;;;38.30;17.55;;;;;;;12.83;48.92;102570.63;5009482;28;20041;-60
2022/02/09 17:30:02;;;;;;;41.63;21.75;;;;;;;12.78;48.98;102566.47;5008278;28;20057;-61
2022/02/09 17:35:05;;;;;;;41.53;23.50;;;;;;;12.70;49.03;102566.75;5009318;28;20088;-60
2022/02/09 17:37:50;;;;;;;38.28;22.98;;;;;;;12.64;49.17;102574.88;5009511;28;20046;-61
2022/02/09 17:54:22;;;;;;;48.40;26.33;;;;;;;12.25;49.73;102576.19;5009125;28;20561;-60
2022/02/09 17:56:51;;;;;;;;;;;;;;;12.25;49.54;102582.34;5009726;28;20418;-61
2022/02/09 17:59:23;;;;;;;42.55;28.35;;;;;;;12.30;49.52;102586.56;5008747;28;19921;-61
2022/02/09 18:01:51;;;;;;;50.05;26.10;;;;;;;12.22;49.62;102586.84;5007571;28;20057;-62
2022/02/09 18:04:20;;;;;;;42.90;25.13;;;;;;;12.12;49.77;102599.44;5008905;28;20052;-61
2022/02/09 18:06:57;;;;;;;36.83;24.52;;;;;;;12.03;49.78;102592.69;5009139;28;20148;-60
2022/02/09 18:09:31;;;;;;;42.45;23.88;;;;;;;12.04;49.69;102590.94;5009085;28;20053;-60
2022/02/09 18:38:25;;;;;;;43.28;28.10;;;;;;;11.63;49.44;102612.38;4992203;28;20081;-61
2022/02/09 18:43:41;;;;;;;41.88;27.17;;;;;;;11.65;49.15;102614.94;4991635;28;20101;-61
2022/02/09 18:46:27;;;;;;;51.00;27.92;;;;;;;11.64;49.02;102608.81;4991671;28;20395;-61
2022/02/09 18:59:51;;;;;;;39.40;25.73;;;;;;;11.62;48.25;102617.66;5011106;28;20057;-61
2022/02/09 19:02:39;;;;;;;38.03;25.02;;;;;;;11.59;48.26;102611.59;5010592;28;20050;-61
2022/02/09 19:18:50;;;;;;;39.45;23.92;;;;;;;11.36;48.54;102612.28;4989198;28;20057;-61
2022/02/09 19:32:29;;;;;;;47.15;27.92;;;;;;;11.17;49.49;102619.00;5010565;28;20100;-61
2022/02/09 19:48:15;;;;;;;41.60;26.42;;;;;;;10.74;49.74;102613.19;5010137;28;20125;-61
2022/02/09 19:56:05;;;;;;;45.08;26.70;;;;;;;10.67;50.00;102624.78;5010105;28;20487;-61
2022/02/09 20:01:05;;;;;;;43.30;26.27;;;;;;;10.53;50.12;102623.34;5009727;28;20088;-60
2022/02/09 20:03:32;;;;;;;42.92;25.50;;;;;;;10.47;50.06;102617.41;5010183;28;20050;-62
2022/02/09 20:05:59;;;;;;;42.47;26.60;;;;;;;10.38;50.12;102619.34;5010310;28;20502;-60
2022/02/09 20:08:26;;;;;;;38.45;25.38;;;;;;;10.33;50.08;102622.97;5009859;28;20050;-62
2022/02/09 20:10:52;;;;;;;38.28;24.48;;;;;;;10.27;50.05;102626.59;5010126;28;20057;-61
2022/02/09 20:13:19;;;;;;;36.72;24.27;;;;;;;10.20;50.24;102620.66;5008587;28;20092;-60
2022/02/09 20:15:46;;;;;;;38.95;24.67;;;;;;;10.15;50.09;102616.44;5009581;28;20046;-61
2022/02/09 20:18:13;;;;;;;36.58;23.15;;;;;;;10.08;50.22;102618.31;5009657;28;20050;-61
2022/02/09 20:20:40;;;;;;;38.40;23.35;;;;;;;10.03;50.16;102614.94;5009451;28;20084;-61
2022/02/09 20:23:10;;;;;;;35.28;24.02;;;;;;;9.99;50.27;102614.16;5009360;28;20045;-61
2022/02/09 20:25:37;;;;;;;39.58;23.85;;;;;;;9.96;50.13;102620.34;5009346;28;20045;-60
2022/02/09 20:28:05;;;;;;;36.92;24.55;;;;;;;9.93;50.13;102628.28;5009480;28;20422;-61
2022/02/09 20:30:38;;;;;;;32.78;22.92;;;;;;;9.86;50.29;102616.22;5008310;28;20557;-62
2022/02/09 20:33:09;;;;;;;32.53;22.85;;;;;;;10.16;49.86;102623.38;5009314;28;20337;-61
2022/02/09 20:35:36;;;;;;;34.50;23.25;;;;;;;10.01;50.13;102619.41;5009133;28;20572;-61
2022/02/09 20:38:03;;;;;;;31.77;23.88;;;;;;;9.93;50.24;102620.44;5009396;28;20056;-61
2022/02/09 20:40:47;;;;;;;32.33;23.98;;;;;;;9.86;50.31;102618.84;5009420;28;20053;-61
2022/02/09 20:43:15;;;;;;;39.25;24.08;;;;;;;9.79;50.54;102631.25;5009269;28;20053;-61
2022/02/09 20:45:54;;;;;;;34.58;21.90;;;;;;;9.70;50.70;102625.34;5007640;28;20046;-61
2022/02/09 20:48:27;;;;;;;35.55;21.85;;;;;;;9.62;50.52;102622.88;5008997;28;20049;-62
2022/02/09 20:50:56;;;;;;;33.42;22.40;;;;;;;9.58;50.61;102627.34;5008950;28;20058;-61
2022/02/09 20:53:22;;;;;;;37.63;23.33;;;;;;;9.53;50.76;102623.94;5008409;28;20088;-61
2022/02/09 20:55:50;;;;;;;39.83;23.63;;;;;;;9.52;50.85;102618.75;5009059;28;20052;-61
2022/02/09 20:58:18;;;;;;;37.75;23.05;;;;;;;9.42;50.95;102625.94;5022878;28;20085;-61
2022/02/09 21:03:27;;;;;;;42.90;23.52;;;;;;;9.38;50.78;102624.28;5008924;28;20494;-61
2022/02/09 21:08:50;;;;;;;38.20;22.92;;;;;;;9.32;51.21;102630.53;5008335;28;20051;-61
2022/02/09 22:20:35;;;;;;;38.25;23.48;;;;;;;8.61;51.91;102592.66;5012056;28;20458;-60
2022/02/09 22:28:46;;;;;;;31.40;20.90;;;;;;;8.47;52.13;102593.75;5009534;28;20077;-60
2022/02/09 22:50:11;;;;;;;34.25;22.67;;;;;;;8.28;52.04;102594.94;4991806;28;20050;-60
2022/02/09 22:55:22;;;;;;;32.75;22.17;;;;;;;8.23;52.09;102591.50;5010725;28;19926;-60
2022/02/09 22:57:55;;;;;;;36.03;23.40;;;;;;;8.25;52.02;102589.75;5011090;28;20053;-61
2022/02/09 23:00:46;;;;;;;38.65;25.98;;;;;;;8.21;52.04;102575.84;5010574;28;20058;-61
2022/02/09 23:03:18;;;;;;;41.17;26.08;;;;;;;8.24;52.12;102582.78;5011154;28;20129;-61
2022/02/09 23:09:15;;;;;;;47.05;28.08;;;;;;;8.27;52.17;102578.38;4991877;28;20494;-62
2022/02/09 23:11:57;;;;;;;40.75;26.92;;;;;;;8.27;52.30;102582.75;5011349;28;20453;-61
2022/02/09 23:20:11;;;;;;;40.15;25.42;;;;;;;8.23;52.42;102576.69;5011451;28;20045;-61
2022/02/09 23:55:55;;;;;;;41.40;25.92;;;;;;;7.77;52.82;102554.78;4990425;28;20050;-61
